Time;durP1;ratioP1;P1;durP2;ratioP2;P2;SDS_P1;SDS_P2;PMS_P1;PMS_P2;Temp;Humidity;BMP_temperature;BMP_pressure;BME280_temperature;BME280_humidity;BME280_pressure;Samples;Min_cycle;Max_cycle;Signal;HPM_P1;HPM_P2
2023/09/05 00:02:16;;;;;;;15.77;10.82;;;;;;;;;;5068000;28;20393;-58
2023/09/05 00:04:44;;;;;;;15.43;9.65;;;;;;;;;;5070024;28;20154;-58
2023/09/05 00:07:11;;;;;;;12.13;10.25;;;;;;;;;;5069582;28;20550;-58
2023/09/05 00:09:37;;;;;;;12.02;10.65;;;;;;;;;;5055392;28;20153;-58
2023/09/05 00:12:07;;;;;;;13.05;11.07;;;;;;;;;;5057784;28;20075;-58
2023/09/05 00:14:33;;;;;;;15.88;11.35;;;;;;;;;;5065293;28;20045;-58
2023/09/05 00:16:59;;;;;;;12.45;11.10;;;;;;;;;;5064036;28;20555;-58
2023/09/05 00:19:26;;;;;;;16.27;11.48;;;;;;;;;;5064006;28;20052;-58
2023/09/05 00:21:52;;;;;;;12.98;10.68;;;;;;;;;;5060012;28;20041;-58
2023/09/05 00:24:30;;;;;;;14.10;11.93;;;;;;;;;;5069453;28;20049;-58
2023/09/05 00:26:56;;;;;;;15.00;12.68;;;;;;;;;;5068542;28;20499;-58
2023/09/05 00:29:23;;;;;;;13.07;10.55;;;;;;;;;;5068074;28;20063;-58
2023/09/05 00:31:50;;;;;;;13.90;9.80;;;;;;;;;;5067384;28;20551;-58
2023/09/05 00:34:19;;;;;;;15.15;10.45;;;;;;;;;;5068450;28;20119;-58
2023/09/05 00:36:49;;;;;;;14.82;11.32;;;;;;;;;;5057392;28;20492;-58
2023/09/05 00:39:16;;;;;;;13.75;11.18;;;;;;;;;;5068907;28;20048;-58
2023/09/05 00:41:42;;;;;;;15.38;11.15;;;;;;;;;;5069354;28;20064;-58
2023/09/05 00:44:09;;;;;;;14.73;12.55;;;;;;;;;;5068150;28;20132;-58
2023/09/05 00:46:35;;;;;;;17.77;11.63;;;;;;;;;;5067752;28;20033;-58
2023/09/05 00:49:05;;;;;;;18.83;12.38;;;;;;;;;;5069108;28;20067;-58
2023/09/05 00:51:31;;;;;;;13.48;12.02;;;;;;;;;;5068043;28;20045;-58
2023/09/05 00:53:59;;;;;;;13.63;10.93;;;;;;;;;;5067554;28;20048;-58
2023/09/05 00:56:25;;;;;;;13.48;11.55;;;;;;;;;;5068997;28;20150;-58
2023/09/05 00:58:52;;;;;;;14.23;11.65;;;;;;;;;;5065151;28;20044;-58
2023/09/05 01:01:18;;;;;;;14.95;11.68;;;;;;;;;;5063158;28;20398;-58
2023/09/05 01:03:44;;;;;;;14.50;12.93;;;;;;;;;;5064631;28;20473;-58
2023/09/05 01:06:14;;;;;;;15.13;11.75;;;;;;;;;;5057335;28;20106;-58
2023/09/05 01:08:46;;;;;;;14.50;12.20;;;;;;;;;;5064196;28;20191;-59
2023/09/05 01:11:14;;;;;;;14.43;11.73;;;;;;;;;;5066948;28;20049;-58
2023/09/05 01:13:41;;;;;;;14.27;11.82;;;;;;;;;;5060932;28;20053;-58
2023/09/05 01:16:08;;;;;;;12.98;11.27;;;;;;;;;;5067286;28;20480;-58
2023/09/05 01:18:39;;;;;;;15.38;11.55;;;;;;;;;;5066944;28;20111;-58
2023/09/05 01:21:11;;;;;;;16.25;11.35;;;;;;;;;;5056044;28;20044;-58
2023/09/05 01:23:53;;;;;;;15.77;11.93;;;;;;;;;;5061559;28;20109;-58
2023/09/05 01:26:19;;;;;;;14.27;11.85;;;;;;;;;;5066497;28;20482;-58
2023/09/05 01:28:46;;;;;;;17.38;11.45;;;;;;;;;;5065058;28;20075;-58
2023/09/05 01:31:15;;;;;;;14.15;12.00;;;;;;;;;;5059893;28;20417;-58
2023/09/05 01:33:41;;;;;;;14.98;11.65;;;;;;;;;;5071156;28;20041;-58
2023/09/05 01:36:07;;;;;;;14.48;12.02;;;;;;;;;;5059380;28;20059;-58
2023/09/05 01:38:34;;;;;;;13.73;11.63;;;;;;;;;;5065162;28;20404;-58
2023/09/05 01:41:00;;;;;;;15.13;12.05;;;;;;;;;;5060942;28;20147;-58
2023/09/05 01:43:27;;;;;;;15.57;12.90;;;;;;;;;;5070398;28;20048;-57
2023/09/05 01:45:53;;;;;;;15.35;11.82;;;;;;;;;;5069213;28;20088;-58
2023/09/05 01:48:22;;;;;;;15.68;12.25;;;;;;;;;;5072507;28;20377;-58
2023/09/05 01:50:49;;;;;;;17.40;12.18;;;;;;;;;;5067399;28;20065;-58
2023/09/05 01:53:15;;;;;;;15.13;12.35;;;;;;;;;;5066687;28;20490;-58
2023/09/05 01:55:41;;;;;;;14.68;11.93;;;;;;;;;;5054944;28;20049;-58
2023/09/05 01:58:07;;;;;;;15.75;12.30;;;;;;;;;;5056121;28;20028;-58
2023/09/05 02:00:33;;;;;;;13.98;11.23;;;;;;;;;;5060700;28;20045;-58
2023/09/05 02:02:59;;;;;;;16.10;11.95;;;;;;;;;;5061573;28;20036;-58
2023/09/05 02:05:26;;;;;;;18.20;12.23;;;;;;;;;;5065006;28;20055;-58
2023/09/05 02:07:52;;;;;;;14.57;11.65;;;;;;;;;;5059512;28;20408;-58
2023/09/05 02:10:18;;;;;;;15.30;11.55;;;;;;;;;;5060362;28;20048;-58
2023/09/05 02:12:45;;;;;;;14.63;11.80;;;;;;;;;;5057146;28;20121;-58
2023/09/05 02:15:11;;;;;;;15.77;12.77;;;;;;;;;;5055296;28;20041;-58
2023/09/05 02:17:37;;;;;;;16.42;12.38;;;;;;;;;;5053650;28;20121;-58
2023/09/05 02:20:04;;;;;;;16.48;11.77;;;;;;;;;;5054222;28;20469;-58
2023/09/05 02:22:30;;;;;;;13.65;12.10;;;;;;;;;;5056693;28;20032;-58
2023/09/05 02:24:56;;;;;;;16.13;11.70;;;;;;;;;;5060005;28;20400;-57
2023/09/05 02:27:22;;;;;;;15.95;11.50;;;;;;;;;;5057048;28;20056;-58
2023/09/05 02:29:56;;;;;;;14.93;11.65;;;;;;;;;;5052836;28;20048;-58
2023/09/05 02:32:24;;;;;;;15.30;12.35;;;;;;;;;;5068307;28;20032;-58
2023/09/05 02:34:52;;;;;;;14.35;11.70;;;;;;;;;;5071984;28;20037;-58
2023/09/05 02:37:18;;;;;;;15.50;12.30;;;;;;;;;;5068732;28;20036;-58
2023/09/05 02:39:45;;;;;;;17.08;12.18;;;;;;;;;;5067123;28;20126;-58
2023/09/05 02:42:11;;;;;;;16.33;11.57;;;;;;;;;;5070872;28;20360;-58
2023/09/05 02:44:37;;;;;;;16.55;12.18;;;;;;;;;;5063893;28;20132;-58
2023/09/05 02:47:03;;;;;;;16.80;11.95;;;;;;;;;;5070234;28;20494;-58
2023/09/05 02:49:31;;;;;;;17.13;11.93;;;;;;;;;;5069262;28;20116;-58
2023/09/05 02:51:57;;;;;;;13.20;11.25;;;;;;;;;;5060306;28;20150;-58
2023/09/05 02:54:24;;;;;;;14.05;11.80;;;;;;;;;;5070579;28;20053;-58
2023/09/05 02:56:50;;;;;;;16.50;12.23;;;;;;;;;;5070107;28;20063;-58
2023/09/05 02:59:16;;;;;;;13.57;11.65;;;;;;;;;;5067863;28;20492;-58
2023/09/05 03:01:43;;;;;;;17.67;12.57;;;;;;;;;;5096768;28;20045;-58
2023/09/05 03:04:09;;;;;;;14.98;11.88;;;;;;;;;;5069696;28;20040;-58
2023/09/05 03:06:35;;;;;;;14.77;11.18;;;;;;;;;;5070893;28;20047;-58
2023/09/05 03:09:03;;;;;;;16.83;11.30;;;;;;;;;;5069215;28;20033;-58
2023/09/05 03:11:29;;;;;;;14.40;11.80;;;;;;;;;;5069675;28;20040;-58
2023/09/05 03:13:55;;;;;;;16.88;12.18;;;;;;;;;;5070709;28;20147;-58
2023/09/05 03:16:23;;;;;;;15.43;11.77;;;;;;;;;;5063269;28;20055;-58
2023/09/05 03:18:50;;;;;;;14.15;11.98;;;;;;;;;;5068788;28;20044;-58
2023/09/05 03:21:17;;;;;;;13.18;11.07;;;;;;;;;;5064068;28;20052;-58
2023/09/05 03:23:43;;;;;;;13.35;10.95;;;;;;;;;;5055047;28;20123;-58
2023/09/05 03:26:10;;;;;;;14.98;11.10;;;;;;;;;;5068146;28;20055;-57
2023/09/05 03:28:43;;;;;;;14.88;11.52;;;;;;;;;;5063096;28;20111;-58
2023/09/05 03:31:09;;;;;;;16.40;11.68;;;;;;;;;;5059421;28;20055;-58
2023/09/05 03:33:35;;;;;;;14.82;11.45;;;;;;;;;;5067091;28;20105;-58
2023/09/05 03:36:01;;;;;;;14.85;11.63;;;;;;;;;;5069673;28;20067;-58
2023/09/05 03:38:29;;;;;;;17.42;12.40;;;;;;;;;;5065617;28;20131;-58
2023/09/05 03:40:55;;;;;;;13.80;10.77;;;;;;;;;;5067461;28;20040;-58
2023/09/05 03:43:21;;;;;;;17.27;11.30;;;;;;;;;;5060961;28;20130;-58
2023/09/05 03:45:48;;;;;;;14.65;11.18;;;;;;;;;;5068549;28;20098;-58
2023/09/05 03:48:14;;;;;;;15.45;11.80;;;;;;;;;;5065850;28;20441;-57
2023/09/05 03:50:40;;;;;;;16.38;11.90;;;;;;;;;;5062896;28;20044;-58
2023/09/05 03:53:07;;;;;;;14.93;12.40;;;;;;;;;;5065207;28;20063;-58
2023/09/05 03:55:34;;;;;;;15.45;12.90;;;;;;;;;;5068261;28;20131;-58
2023/09/05 03:58:04;;;;;;;22.23;13.45;;;;;;;;;;5069591;28;20560;-58
2023/09/05 04:00:34;;;;;;;15.48;11.75;;;;;;;;;;5063510;28;20131;-57
2023/09/05 04:03:02;;;;;;;15.25;11.70;;;;;;;;;;5061317;28;20041;-58
2023/09/05 04:05:29;;;;;;;15.00;12.52;;;;;;;;;;5063158;28;20048;-57
2023/09/05 04:07:55;;;;;;;16.30;12.85;;;;;;;;;;5060660;28;20444;-58
2023/09/05 04:10:22;;;;;;;13.98;11.68;;;;;;;;;;5065135;28;20041;-58
2023/09/05 04:12:50;;;;;;;16.17;12.65;;;;;;;;;;5069766;28;20097;-58
2023/09/05 04:15:20;;;;;;;17.42;12.60;;;;;;;;;;5055457;28;20041;-57
2023/09/05 04:17:47;;;;;;;17.02;12.30;;;;;;;;;;5062900;28;20068;-58
2023/09/05 04:20:13;;;;;;;17.83;13.60;;;;;;;;;;5069881;28;20048;-58
2023/09/05 04:22:40;;;;;;;15.98;12.48;;;;;;;;;;5069468;28;20040;-57
2023/09/05 04:25:07;;;;;;;16.40;13.32;;;;;;;;;;5067531;28;20045;-58
2023/09/05 04:27:33;;;;;;;17.55;13.35;;;;;;;;;;5069187;28;20124;-58
2023/09/05 04:29:59;;;;;;;16.65;12.50;;;;;;;;;;5060702;28;20044;-57
2023/09/05 04:32:31;;;;;;;18.00;13.68;;;;;;;;;;5063907;28;20377;-58
2023/09/05 04:34:58;;;;;;;16.58;12.95;;;;;;;;;;5057461;28;20052;-57
2023/09/05 04:37:24;;;;;;;17.98;13.40;;;;;;;;;;5055869;28;20065;-59
2023/09/05 04:39:50;;;;;;;17.48;13.68;;;;;;;;;;5058672;28;20127;-58
2023/09/05 04:42:17;;;;;;;20.20;13.02;;;;;;;;;;5054610;28;20029;-58
2023/09/05 04:44:43;;;;;;;21.65;14.27;;;;;;;;;;5064656;28;20080;-58
2023/09/05 04:47:35;;;;;;;17.35;12.77;;;;;;;;;;5058555;28;20045;-71
2023/09/05 04:50:02;;;;;;;16.33;12.95;;;;;;;;;;5062046;28;20512;-58
2023/09/05 04:52:29;;;;;;;18.15;13.10;;;;;;;;;;5062792;28;20059;-58
2023/09/05 04:54:55;;;;;;;14.55;13.02;;;;;;;;;;5060136;28;20041;-58
2023/09/05 04:57:22;;;;;;;17.20;13.07;;;;;;;;;;5055983;28;20037;-58
2023/09/05 04:59:48;;;;;;;18.13;12.57;;;;;;;;;;5069448;28;20090;-58
2023/09/05 05:02:15;;;;;;;15.45;12.25;;;;;;;;;;5070086;28;20041;-58
2023/09/05 05:04:42;;;;;;;18.42;12.90;;;;;;;;;;5069133;28;20117;-58
2023/09/05 05:07:08;;;;;;;15.32;12.52;;;;;;;;;;5067104;28;20369;-58
2023/09/05 05:09:34;;;;;;;21.83;12.52;;;;;;;;;;5066612;28;20052;-58
2023/09/05 05:12:01;;;;;;;18.95;12.43;;;;;;;;;;5067896;28;20041;-58
2023/09/05 05:14:28;;;;;;;15.52;11.52;;;;;;;;;;5063013;28;20408;-58
2023/09/05 05:16:55;;;;;;;17.90;13.13;;;;;;;;;;5072138;28;20039;-58
2023/09/05 05:19:21;;;;;;;19.92;13.15;;;;;;;;;;5067128;28;20127;-58
2023/09/05 05:21:48;;;;;;;17.95;12.43;;;;;;;;;;5059394;28;20500;-58
2023/09/05 05:24:15;;;;;;;19.13;13.40;;;;;;;;;;5069255;28;20124;-63
2023/09/05 05:26:41;;;;;;;16.05;11.90;;;;;;;;;;5067063;28;20044;-58
2023/09/05 05:29:07;;;;;;;17.05;13.35;;;;;;;;;;5067173;28;20048;-58
2023/09/05 05:31:34;;;;;;;18.25;13.95;;;;;;;;;;5062158;28;20060;-58
2023/09/05 05:34:00;;;;;;;18.08;12.95;;;;;;;;;;5064717;28;20051;-58
2023/09/05 05:36:29;;;;;;;17.25;12.85;;;;;;;;;;5063553;28;20105;-58
2023/09/05 05:38:55;;;;;;;18.20;12.70;;;;;;;;;;5062637;28;20101;-58
2023/09/05 05:41:21;;;;;;;15.77;12.95;;;;;;;;;;5063150;28;20496;-58
2023/09/05 05:43:47;;;;;;;16.20;12.15;;;;;;;;;;5062320;28;20054;-58
2023/09/05 05:46:14;;;;;;;16.50;13.60;;;;;;;;;;5069184;28;20102;-58
2023/09/05 05:48:41;;;;;;;18.40;13.18;;;;;;;;;;5066833;28;20107;-58
2023/09/05 05:51:07;;;;;;;16.58;12.75;;;;;;;;;;5070065;28;20049;-57
2023/09/05 05:53:34;;;;;;;15.05;12.32;;;;;;;;;;5067480;28;20067;-57
2023/09/05 05:56:00;;;;;;;17.27;12.80;;;;;;;;;;5064292;28;20033;-58
2023/09/05 05:58:26;;;;;;;17.33;12.43;;;;;;;;;;5069850;28;20079;-58
2023/09/05 06:00:53;;;;;;;17.77;12.35;;;;;;;;;;5063687;28;20500;-58
2023/09/05 06:03:21;;;;;;;14.82;12.55;;;;;;;;;;5062256;28;20033;-58
2023/09/05 06:05:48;;;;;;;16.33;12.43;;;;;;;;;;5061667;28;20044;-58
2023/09/05 06:08:14;;;;;;;16.02;12.00;;;;;;;;;;5061630;28;20037;-58
2023/09/05 06:10:41;;;;;;;15.27;12.35;;;;;;;;;;5062583;28;20119;-58
2023/09/05 06:13:07;;;;;;;14.32;11.35;;;;;;;;;;5063470;28;20133;-58
2023/09/05 06:15:36;;;;;;;15.80;12.07;;;;;;;;;;5068377;28;20049;-58
2023/09/05 06:18:03;;;;;;;14.02;11.15;;;;;;;;;;5066084;28;20117;-58
2023/09/05 06:20:29;;;;;;;16.08;11.95;;;;;;;;;;5063528;28;20127;-58
2023/09/05 06:22:56;;;;;;;14.73;11.73;;;;;;;;;;5063670;28;20388;-58
2023/09/05 06:25:23;;;;;;;20.23;12.40;;;;;;;;;;5062265;28;20492;-58
2023/09/05 06:27:49;;;;;;;16.33;11.10;;;;;;;;;;5062172;28;20120;-58
2023/09/05 06:30:16;;;;;;;19.83;12.27;;;;;;;;;;5063592;28;20044;-58
2023/09/05 06:32:42;;;;;;;17.15;10.93;;;;;;;;;;5065362;28;20051;-58
2023/09/05 06:35:09;;;;;;;15.85;11.43;;;;;;;;;;5064050;28;20128;-58
2023/09/05 06:37:37;;;;;;;15.30;11.77;;;;;;;;;;5093142;28;20063;-58
2023/09/05 06:40:09;;;;;;;14.30;10.75;;;;;;;;;;5065919;28;20487;-58
2023/09/05 06:42:39;;;;;;;17.92;11.07;;;;;;;;;;5064771;28;20098;-58
2023/09/05 06:45:06;;;;;;;15.32;11.13;;;;;;;;;;5063576;28;20124;-58
2023/09/05 06:47:32;;;;;;;13.35;10.40;;;;;;;;;;5068541;28;20052;-58
2023/09/05 06:49:59;;;;;;;17.90;12.55;;;;;;;;;;5067943;28;20064;-59
2023/09/05 06:52:26;;;;;;;13.15;10.18;;;;;;;;;;5068865;28;20033;-59
2023/09/05 06:54:52;;;;;;;17.90;11.15;;;;;;;;;;5072096;28;20123;-59
2023/09/05 06:57:19;;;;;;;15.57;10.88;;;;;;;;;;5066570;28;20044;-59
2023/09/05 06:59:46;;;;;;;13.10;9.85;;;;;;;;;;5069839;28;20493;-59
2023/09/05 07:02:12;;;;;;;15.57;11.88;;;;;;;;;;5067273;28;20059;-59
2023/09/05 07:04:38;;;;;;;12.98;10.50;;;;;;;;;;5068938;28;20407;-59
2023/09/05 07:07:05;;;;;;;15.23;10.82;;;;;;;;;;5067796;28;20062;-60
2023/09/05 07:09:31;;;;;;;15.77;10.65;;;;;;;;;;5069144;28;20536;-59
2023/09/05 07:11:58;;;;;;;15.45;10.57;;;;;;;;;;5068966;28;20052;-59
2023/09/05 07:14:24;;;;;;;15.38;10.25;;;;;;;;;;5067340;28;20075;-59
2023/09/05 07:16:50;;;;;;;15.27;11.00;;;;;;;;;;5070245;28;20036;-59
2023/09/05 07:19:17;;;;;;;14.40;10.10;;;;;;;;;;5049030;28;20447;-60
2023/09/05 07:21:43;;;;;;;14.25;10.52;;;;;;;;;;5068527;28;20075;-59
2023/09/05 07:24:11;;;;;;;13.00;9.32;;;;;;;;;;5066311;28;20044;-59
2023/09/05 07:26:38;;;;;;;15.77;10.38;;;;;;;;;;5066501;28;20041;-59
2023/09/05 07:29:05;;;;;;;13.52;10.18;;;;;;;;;;5082448;28;20133;-59
2023/09/05 07:31:34;;;;;;;12.93;9.25;;;;;;;;;;5067325;28;20040;-59
2023/09/05 07:34:00;;;;;;;11.43;9.35;;;;;;;;;;5073993;28;20040;-59
2023/09/05 07:36:28;;;;;;;17.17;10.00;;;;;;;;;;5067663;28;20058;-59
2023/09/05 07:38:55;;;;;;;12.20;9.02;;;;;;;;;;5070397;28;20396;-59
2023/09/05 07:41:21;;;;;;;14.88;9.43;;;;;;;;;;5070879;28;20051;-59
2023/09/05 07:43:47;;;;;;;13.93;8.70;;;;;;;;;;5074755;28;20041;-59
2023/09/05 07:46:13;;;;;;;13.98;8.75;;;;;;;;;;5069953;28;20093;-60
2023/09/05 07:48:40;;;;;;;15.23;8.82;;;;;;;;;;5070606;28;20041;-59
2023/09/05 07:51:07;;;;;;;11.13;8.73;;;;;;;;;;5069968;28;20084;-59
2023/09/05 07:53:37;;;;;;;13.35;9.80;;;;;;;;;;5069525;28;20150;-59
2023/09/05 07:56:07;;;;;;;14.18;9.23;;;;;;;;;;5069099;28;20449;-59
2023/09/05 07:58:33;;;;;;;13.98;8.65;;;;;;;;;;5070591;28;20044;-59
2023/09/05 08:00:59;;;;;;;11.98;7.75;;;;;;;;;;5070032;28;20032;-59
2023/09/05 08:03:26;;;;;;;11.05;8.38;;;;;;;;;;5070148;28;20041;-59
2023/09/05 08:05:56;;;;;;;15.15;8.00;;;;;;;;;;5068485;28;20044;-59
2023/09/05 08:08:22;;;;;;;10.02;7.72;;;;;;;;;;5072144;28;20723;-59
2023/09/05 08:10:49;;;;;;;10.23;6.60;;;;;;;;;;5070570;28;20078;-59
2023/09/05 08:13:16;;;;;;;10.32;7.65;;;;;;;;;;5069873;28;20036;-59
2023/09/05 08:15:43;;;;;;;10.85;7.72;;;;;;;;;;5069360;28;20395;-59
2023/09/05 08:18:10;;;;;;;8.48;6.80;;;;;;;;;;5068691;28;20098;-59
2023/09/05 08:20:39;;;;;;;11.40;6.85;;;;;;;;;;5068999;28;20077;-59
2023/09/05 08:23:05;;;;;;;9.93;7.53;;;;;;;;;;5070932;28;20072;-59
2023/09/05 08:25:32;;;;;;;11.55;7.32;;;;;;;;;;5069825;28;20037;-59
2023/09/05 08:27:58;;;;;;;14.10;7.70;;;;;;;;;;5067394;28;20072;-59
2023/09/05 08:30:25;;;;;;;11.18;6.97;;;;;;;;;;5070417;28;20531;-59
2023/09/05 08:32:53;;;;;;;7.68;6.10;;;;;;;;;;5070437;28;20162;-60
2023/09/05 08:35:20;;;;;;;9.98;7.30;;;;;;;;;;5076144;28;20036;-59
2023/09/05 08:37:46;;;;;;;8.93;6.65;;;;;;;;;;5065175;28;20049;-60
2023/09/05 08:40:13;;;;;;;9.38;6.43;;;;;;;;;;5072134;28;20034;-59
2023/09/05 08:42:40;;;;;;;11.27;6.40;;;;;;;;;;5071754;28;20460;-59
2023/09/05 08:45:09;;;;;;;8.57;6.57;;;;;;;;;;5073942;28;20516;-60
2023/09/05 08:47:35;;;;;;;8.18;6.10;;;;;;;;;;5072893;28;20052;-60
2023/09/05 08:50:04;;;;;;;8.05;5.78;;;;;;;;;;5073693;28;20498;-60
2023/09/05 08:52:33;;;;;;;8.13;5.47;;;;;;;;;;5073521;28;20052;-61
2023/09/05 08:54:59;;;;;;;14.20;6.53;;;;;;;;;;5072380;28;20080;-60
2023/09/05 08:57:26;;;;;;;8.30;5.45;;;;;;;;;;5068589;28;20040;-60
2023/09/05 08:59:54;;;;;;;9.32;5.53;;;;;;;;;;5074667;28;20055;-60
2023/09/05 09:02:20;;;;;;;7.03;5.45;;;;;;;;;;5071491;28;20394;-60
2023/09/05 09:04:50;;;;;;;8.52;5.97;;;;;;;;;;5074928;28;20117;-59
2023/09/05 09:07:16;;;;;;;8.02;4.50;;;;;;;;;;5066764;28;20061;-59
2023/09/05 09:09:43;;;;;;;12.02;5.43;;;;;;;;;;5073315;28;20041;-59
2023/09/05 09:12:09;;;;;;;8.38;5.00;;;;;;;;;;5073721;28;20338;-59
2023/09/05 09:14:35;;;;;;;9.73;4.55;;;;;;;;;;5073101;28;20032;-60
2023/09/05 09:17:02;;;;;;;6.75;4.40;;;;;;;;;;5072208;28;20066;-59
2023/09/05 09:19:29;;;;;;;7.63;4.65;;;;;;;;;;5072896;28;20043;-59
2023/09/05 09:21:56;;;;;;;6.53;4.13;;;;;;;;;;5073143;28;20041;-59
2023/09/05 09:24:22;;;;;;;7.68;3.40;;;;;;;;;;5072281;28;20048;-59
2023/09/05 09:26:48;;;;;;;5.60;3.95;;;;;;;;;;5073360;28;20115;-60
2023/09/05 09:29:16;;;;;;;7.43;3.65;;;;;;;;;;5104856;28;20341;-59
2023/09/05 09:31:43;;;;;;;6.35;3.90;;;;;;;;;;5074821;28;20043;-58
2023/09/05 09:34:11;;;;;;;5.82;3.53;;;;;;;;;;5071474;28;20457;-58
2023/09/05 09:36:38;;;;;;;6.28;3.60;;;;;;;;;;5076617;28;20044;-58
2023/09/05 09:39:08;;;;;;;5.78;3.28;;;;;;;;;;5072257;28;20049;-58
2023/09/05 09:41:34;;;;;;;6.80;3.05;;;;;;;;;;5073315;28;20044;-58
2023/09/05 09:44:00;;;;;;;8.70;3.65;;;;;;;;;;5073128;28;20512;-58
2023/09/05 09:46:27;;;;;;;5.90;2.58;;;;;;;;;;5063203;28;20124;-61
2023/09/05 09:48:54;;;;;;;5.10;3.08;;;;;;;;;;5071414;28;20056;-58
2023/09/05 09:51:23;;;;;;;5.15;2.63;;;;;;;;;;5059722;28;20204;-59
2023/09/05 09:53:50;;;;;;;5.90;2.65;;;;;;;;;;5072280;28;20059;-59
2023/09/05 09:56:19;;;;;;;5.82;2.33;;;;;;;;;;5073813;28;20461;-59
2023/09/05 09:58:46;;;;;;;5.57;2.65;;;;;;;;;;5072191;28;20053;-59
2023/09/05 10:01:13;;;;;;;5.65;2.65;;;;;;;;;;5071419;28;20364;-60
2023/09/05 10:03:40;;;;;;;5.38;2.80;;;;;;;;;;5070315;28;20102;-60
2023/09/05 10:06:07;;;;;;;7.70;2.30;;;;;;;;;;5061956;28;20041;-60
2023/09/05 10:08:34;;;;;;;8.00;2.53;;;;;;;;;;5072744;28;20056;-60
2023/09/05 10:11:00;;;;;;;7.28;2.50;;;;;;;;;;5070642;28;20437;-60
2023/09/05 10:13:30;;;;;;;4.85;2.05;;;;;;;;;;5071940;28;20352;-60
2023/09/05 10:15:56;;;;;;;7.65;2.72;;;;;;;;;;5073442;28;20551;-65
2023/09/05 10:18:23;;;;;;;3.85;2.17;;;;;;;;;;5054177;28;20106;-60
2023/09/05 10:20:50;;;;;;;5.55;2.22;;;;;;;;;;5071173;28;20059;-60
2023/09/05 10:23:18;;;;;;;5.45;2.35;;;;;;;;;;5071976;28;20075;-60
2023/09/05 10:25:45;;;;;;;4.20;2.00;;;;;;;;;;5072240;28;20048;-60
2023/09/05 10:28:11;;;;;;;6.65;2.42;;;;;;;;;;5062397;28;20481;-60
2023/09/05 10:30:41;;;;;;;4.88;1.95;;;;;;;;;;5076321;28;20192;-60
2023/09/05 10:33:11;;;;;;;3.55;1.95;;;;;;;;;;5071409;28;20049;-60
2023/09/05 10:35:37;;;;;;;3.92;2.38;;;;;;;;;;5072454;28;20097;-58
2023/09/05 10:38:05;;;;;;;3.97;1.88;;;;;;;;;;5070779;28;20045;-58
2023/09/05 10:40:35;;;;;;;4.22;1.98;;;;;;;;;;5072475;28;20040;-58
2023/09/05 10:43:03;;;;;;;5.80;2.20;;;;;;;;;;5072085;28;20048;-58
2023/09/05 10:45:33;;;;;;;3.50;2.00;;;;;;;;;;5071868;28;20123;-58
2023/09/05 10:48:04;;;;;;;5.45;2.00;;;;;;;;;;5071792;28;20057;-58
2023/09/05 10:50:31;;;;;;;4.63;2.23;;;;;;;;;;5072126;28;20224;-58
2023/09/05 10:53:18;;;;;;;3.63;1.95;;;;;;;;;;5073156;28;20111;-58
2023/09/05 10:55:46;;;;;;;5.00;1.80;;;;;;;;;;5065818;28;20521;-58
2023/09/05 10:58:31;;;;;;;4.55;2.00;;;;;;;;;;5064071;28;20106;-58
2023/09/05 11:01:00;;;;;;;3.90;1.90;;;;;;;;;;5071099;28;20106;-58
2023/09/05 11:03:36;;;;;;;2.90;1.75;;;;;;;;;;5080519;28;20052;-58
2023/09/05 11:06:12;;;;;;;4.22;1.67;;;;;;;;;;5057391;28;20496;-58
2023/09/05 11:08:39;;;;;;;3.10;1.80;;;;;;;;;;5071352;28;20408;-58
2023/09/05 11:11:05;;;;;;;5.68;1.67;;;;;;;;;;5071217;28;20118;-58
2023/09/05 11:13:31;;;;;;;6.55;1.50;;;;;;;;;;5071371;28;20048;-58
2023/09/05 11:15:58;;;;;;;3.05;1.63;;;;;;;;;;5055728;28;20048;-58
2023/09/05 11:18:24;;;;;;;3.53;1.50;;;;;;;;;;5071628;28;20032;-58
2023/09/05 11:20:51;;;;;;;3.65;1.52;;;;;;;;;;5067661;28;20557;-58
2023/09/05 11:23:21;;;;;;;3.75;1.63;;;;;;;;;;5070052;28;20051;-58
2023/09/05 11:25:50;;;;;;;5.35;1.73;;;;;;;;;;5070476;28;20056;-58
2023/09/05 11:28:17;;;;;;;2.92;1.58;;;;;;;;;;5065562;28;20429;-58
2023/09/05 11:30:45;;;;;;;4.28;1.50;;;;;;;;;;5076799;28;20041;-58
2023/09/05 11:33:16;;;;;;;3.78;1.30;;;;;;;;;;5072403;28;20113;-58
2023/09/05 11:35:43;;;;;;;3.22;1.60;;;;;;;;;;5069372;28;20161;-58
2023/09/05 11:38:13;;;;;;;4.05;1.55;;;;;;;;;;5069599;28;20038;-58
2023/09/05 11:40:41;;;;;;;3.65;1.17;;;;;;;;;;5071790;28;20044;-58
2023/09/05 11:43:08;;;;;;;3.10;1.50;;;;;;;;;;5070827;28;20130;-58
2023/09/05 11:45:34;;;;;;;4.43;1.50;;;;;;;;;;5069419;28;20043;-58
2023/09/05 11:48:02;;;;;;;4.10;1.50;;;;;;;;;;5060175;28;20154;-59
2023/09/05 11:50:31;;;;;;;3.70;1.50;;;;;;;;;;5069772;28;20079;-58
2023/09/05 11:52:58;;;;;;;2.50;1.20;;;;;;;;;;5071077;28;20040;-58
2023/09/05 11:55:25;;;;;;;7.68;1.85;;;;;;;;;;5070679;28;20044;-58
2023/09/05 11:57:55;;;;;;;2.53;1.27;;;;;;;;;;5070437;28;20063;-58
2023/09/05 12:00:23;;;;;;;3.63;1.58;;;;;;;;;;5070726;28;20055;-58
2023/09/05 12:02:50;;;;;;;3.03;1.23;;;;;;;;;;5069239;28;20504;-58
2023/09/05 12:05:19;;;;;;;2.45;1.35;;;;;;;;;;5060606;28;20037;-58
2023/09/05 12:07:55;;;;;;;3.92;1.48;;;;;;;;;;5071239;28;20101;-58
2023/09/05 12:10:22;;;;;;;3.90;1.52;;;;;;;;;;5069732;28;20441;-58
2023/09/05 12:12:56;;;;;;;4.75;1.55;;;;;;;;;;5070152;28;20097;-58
2023/09/05 12:15:32;;;;;;;3.83;1.40;;;;;;;;;;5058186;28;20121;-58
2023/09/05 12:18:05;;;;;;;2.60;1.20;;;;;;;;;;5061774;28;20147;-58
2023/09/05 12:20:32;;;;;;;2.53;1.40;;;;;;;;;;5066508;28;20040;-58
2023/09/05 12:22:59;;;;;;;2.83;1.40;;;;;;;;;;5069404;28;20041;-58
2023/09/05 12:25:28;;;;;;;4.05;1.50;;;;;;;;;;5070570;28;20060;-58
2023/09/05 12:27:58;;;;;;;4.25;1.38;;;;;;;;;;5069649;28;20040;-58
2023/09/05 12:30:31;;;;;;;3.45;1.48;;;;;;;;;;5069163;28;20049;-58
2023/09/05 12:33:01;;;;;;;2.53;1.20;;;;;;;;;;5070022;28;20036;-58
2023/09/05 12:35:28;;;;;;;5.60;1.52;;;;;;;;;;5069864;28;20048;-58
2023/09/05 12:37:59;;;;;;;4.45;1.60;;;;;;;;;;5070199;28;20063;-58
2023/09/05 12:40:25;;;;;;;3.20;1.27;;;;;;;;;;5055733;28;20147;-58
2023/09/05 12:42:52;;;;;;;3.10;1.30;;;;;;;;;;5070394;28;20048;-58
2023/09/05 12:45:19;;;;;;;4.07;1.70;;;;;;;;;;5069825;28;20040;-58
2023/09/05 12:47:52;;;;;;;4.80;1.50;;;;;;;;;;5069450;28;20052;-58
2023/09/05 12:50:28;;;;;;;4.25;1.23;;;;;;;;;;5071397;28;20085;-58
2023/09/05 12:52:54;;;;;;;3.67;1.15;;;;;;;;;;5070296;28;20047;-58
2023/09/05 12:55:21;;;;;;;2.40;1.25;;;;;;;;;;5069341;28;20078;-58
2023/09/05 12:57:47;;;;;;;2.28;1.20;;;;;;;;;;5060643;28;20157;-58
2023/09/05 13:00:14;;;;;;;4.13;1.33;;;;;;;;;;5070335;28;20040;-58
2023/09/05 13:02:40;;;;;;;8.13;1.48;;;;;;;;;;5069629;28;20059;-58
2023/09/05 13:05:07;;;;;;;3.50;1.80;;;;;;;;;;5069497;28;20041;-58
2023/09/05 13:07:34;;;;;;;3.65;1.27;;;;;;;;;;5092189;28;20036;-58
2023/09/05 13:10:00;;;;;;;3.17;1.58;;;;;;;;;;5068821;28;20168;-58
2023/09/05 13:12:26;;;;;;;3.25;1.30;;;;;;;;;;5069827;28;20059;-58
2023/09/05 13:14:53;;;;;;;3.35;1.30;;;;;;;;;;5070081;28;20093;-58
2023/09/05 13:17:20;;;;;;;4.65;1.40;;;;;;;;;;5069185;28;20053;-58
2023/09/05 13:19:46;;;;;;;5.05;1.52;;;;;;;;;;5069892;28;20044;-58
2023/09/05 13:22:13;;;;;;;2.80;1.20;;;;;;;;;;5071407;28;20056;-58
2023/09/05 13:24:40;;;;;;;4.57;1.30;;;;;;;;;;5105156;28;20468;-58
2023/09/05 13:27:07;;;;;;;2.65;1.23;;;;;;;;;;5073485;28;20491;-58
2023/09/05 13:29:34;;;;;;;7.68;1.17;;;;;;;;;;5072599;28;20449;-58
2023/09/05 13:32:00;;;;;;;3.17;1.17;;;;;;;;;;5073330;28;20150;-58
2023/09/05 13:34:28;;;;;;;4.00;1.45;;;;;;;;;;5072353;28;20090;-57
2023/09/05 13:36:54;;;;;;;5.00;1.50;;;;;;;;;;5071189;28;20041;-57
2023/09/05 13:39:22;;;;;;;6.38;1.45;;;;;;;;;;5072588;28;20039;-57
2023/09/05 13:41:49;;;;;;;2.85;1.38;;;;;;;;;;5073424;28;20076;-57
2023/09/05 13:44:15;;;;;;;3.47;1.70;;;;;;;;;;5072453;28;20162;-58
2023/09/05 13:46:41;;;;;;;3.50;1.60;;;;;;;;;;5073121;28;20045;-58
2023/09/05 13:49:07;;;;;;;3.38;1.95;;;;;;;;;;5072496;28;20044;-57
2023/09/05 13:51:34;;;;;;;5.18;1.60;;;;;;;;;;5071892;28;20051;-58
2023/09/05 13:54:00;;;;;;;3.28;1.58;;;;;;;;;;5073141;28;20049;-57
2023/09/05 13:56:27;;;;;;;5.90;1.73;;;;;;;;;;5073341;28;20072;-57
2023/09/05 13:58:53;;;;;;;3.45;1.38;;;;;;;;;;5069740;28;20048;-58
2023/09/05 14:01:20;;;;;;;2.38;1.20;;;;;;;;;;5073133;28;20048;-57
2023/09/05 14:03:47;;;;;;;3.30;1.30;;;;;;;;;;5071903;28;20534;-57
2023/09/05 14:06:14;;;;;;;6.55;2.28;;;;;;;;;;5074500;28;20499;-58
2023/09/05 14:08:43;;;;;;;2.97;1.33;;;;;;;;;;5072727;28;20064;-58
2023/09/05 14:11:12;;;;;;;4.15;1.60;;;;;;;;;;5072908;28;20103;-58
2023/09/05 14:13:38;;;;;;;2.92;1.40;;;;;;;;;;5072076;28;20049;-58
2023/09/05 14:16:04;;;;;;;3.22;1.58;;;;;;;;;;5071327;28;20032;-58
2023/09/05 14:18:30;;;;;;;2.90;1.50;;;;;;;;;;5073582;28;20060;-57
2023/09/05 14:20:57;;;;;;;2.72;1.20;;;;;;;;;;5071897;28;20447;-57
2023/09/05 14:23:23;;;;;;;5.57;1.35;;;;;;;;;;5068589;28;20037;-57
2023/09/05 14:25:49;;;;;;;5.53;1.65;;;;;;;;;;5071823;28;20087;-58
2023/09/05 14:28:16;;;;;;;4.93;1.40;;;;;;;;;;5070536;28;20085;-57
2023/09/05 14:30:43;;;;;;;3.97;1.40;;;;;;;;;;5071991;28;20096;-58